Time;durP1;ratioP1;P1;durP2;ratioP2;P2;SDS_P1;SDS_P2;PMS_P1;PMS_P2;Temp;Humidity;BMP_temperature;BMP_pressure;BME280_temperature;BME280_humidity;BME280_pressure;Samples;Min_cycle;Max_cycle;Signal;HPM_P1;HPM_P2
2021/12/17 00:01:12;;;;;;;42.43;24.77;;;13.20;99.90;;;;;;5051620;28;20676;-76
2021/12/17 00:03:47;;;;;;;39.45;25.33;;;13.20;99.90;;;;;;5067207;23;21088;-73
2021/12/17 00:06:47;;;;;;;42.75;25.63;;;13.20;99.90;;;;;;5058437;28;20176;-73
2021/12/17 00:09:04;;;;;;;35.08;24.90;;;13.20;99.90;;;;;;5036191;28;20173;-73
2021/12/17 00:11:29;;;;;;;38.13;26.60;;;13.20;99.90;;;;;;5050807;28;20172;-73
2021/12/17 00:13:56;;;;;;;31.23;22.97;;;13.10;99.90;;;;;;5057613;28;20528;-73
2021/12/17 00:16:26;;;;;;;35.65;25.20;;;13.00;99.90;;;;;;5069792;28;20571;-73
2021/12/17 00:48:51;;;;;;;22.67;17.80;;;12.80;99.90;;;;;;5032047;28;20630;-73
2021/12/17 00:54:18;;;;;;;25.65;18.52;;;12.90;99.90;;;;;;5030591;28;20268;-73
2021/12/17 00:56:43;;;;;;;26.30;17.88;;;12.90;99.90;;;;;;5030429;28;20177;-73
2021/12/17 00:59:09;;;;;;;20.50;15.47;;;12.90;99.90;;;;;;5030643;28;20162;-73
2021/12/17 01:01:35;;;;;;;23.87;17.00;;;12.90;99.90;;;;;;5030389;28;20802;-73
2021/12/17 01:04:01;;;;;;;24.42;17.80;;;12.90;99.90;;;;;;5030142;28;20193;-73
2021/12/17 01:06:27;;;;;;;23.47;18.17;;;13.00;99.90;;;;;;5030557;28;20183;-72
2021/12/17 01:08:53;;;;;;;26.33;19.50;;;13.00;99.90;;;;;;5031401;28;20157;-73
2021/12/17 01:11:23;;;;;;;26.13;18.00;;;13.00;99.90;;;;;;5030419;28;20253;-72
2021/12/17 01:14:07;;;;;;;21.37;15.83;;;13.00;99.90;;;;;;5031449;28;20196;-73
2021/12/17 01:16:53;;;;;;;23.98;16.63;;;13.10;99.90;;;;;;5031738;28;20556;-72
2021/12/17 01:25:04;;;;;;;24.48;16.50;;;13.00;99.90;;;;;;5030352;28;20153;-73
2021/12/17 01:36:18;;;;;;;19.30;14.95;;;12.90;99.90;;;;;;5070088;28;20171;-73
2021/12/17 01:44:16;;;;;;;19.25;14.15;;;12.80;99.90;;;;;;5032098;28;20181;-73
2021/12/17 01:46:44;;;;;;;20.10;13.67;;;12.70;99.90;;;;;;5036852;28;20699;-73
2021/12/17 02:00:08;;;;;;;13.05;10.93;;;12.40;99.90;;;;;;5073674;28;20172;-73
2021/12/17 02:02:45;;;;;;;16.52;12.57;;;12.40;99.90;;;;;;5074506;28;20192;-73
2021/12/17 02:05:14;;;;;;;17.40;12.05;;;12.30;99.90;;;;;;5073844;28;20184;-73
2021/12/17 02:07:41;;;;;;;18.05;11.75;;;12.30;99.90;;;;;;5074594;28;20173;-73
2021/12/17 02:31:28;;;;;;;14.95;11.23;;;12.20;99.90;;;;;;5073004;28;20169;-73
2021/12/17 02:34:04;;;;;;;16.63;12.07;;;12.20;99.90;;;;;;5073165;28;20196;-73
2021/12/17 02:36:33;;;;;;;18.67;12.30;;;12.20;99.90;;;;;;5073174;28;20171;-73
2021/12/17 02:39:26;;;;;;;13.88;11.48;;;12.20;99.90;;;;;;5072362;28;20566;-73
2021/12/17 02:47:21;;;;;;;15.27;11.27;;;12.30;99.90;;;;;;5073279;28;20176;-73
2021/12/17 02:49:48;;;;;;;16.30;12.80;;;12.30;99.90;;;;;;5072636;28;20169;-73
2021/12/17 02:52:15;;;;;;;17.23;11.82;;;12.30;99.90;;;;;;5072635;28;20188;-73
2021/12/17 02:54:41;;;;;;;18.05;10.60;;;12.30;99.90;;;;;;5072499;28;20222;-73
2021/12/17 02:57:09;;;;;;;14.88;10.48;;;12.40;99.90;;;;;;5073987;28;20160;-73
2021/12/17 02:59:36;;;;;;;15.25;11.50;;;12.40;99.90;;;;;;5072479;28;20171;-73
2021/12/17 03:02:05;;;;;;;17.75;12.13;;;12.40;99.90;;;;;;5073911;28;20638;-73
2021/12/17 03:04:33;;;;;;;15.18;11.10;;;12.30;99.90;;;;;;5072529;28;20169;-73
2021/12/17 03:06:59;;;;;;;15.27;11.27;;;12.30;99.90;;;;;;5072632;28;20173;-73
2021/12/17 03:09:45;;;;;;;18.00;13.57;;;12.40;99.90;;;;;;5072569;28;20172;-73
2021/12/17 03:12:19;;;;;;;17.92;11.75;;;12.40;99.90;;;;;;5071993;28;20196;-73
2021/12/17 03:15:00;;;;;;;14.45;11.48;;;12.40;99.90;;;;;;5072333;28;20200;-73
2021/12/17 03:17:52;;;;;;;14.18;11.52;;;12.40;99.90;;;;;;5073429;28;20179;-73
2021/12/17 03:25:40;;;;;;;13.43;10.57;;;12.40;99.90;;;;;;5072131;28;20603;-73
2021/12/17 03:28:09;;;;;;;15.05;11.65;;;12.40;99.90;;;;;;5072035;28;20168;-73
2021/12/17 03:30:35;;;;;;;16.73;11.27;;;12.40;99.90;;;;;;5073238;28;20164;-73
2021/12/17 03:33:00;;;;;;;13.15;10.88;;;12.30;99.90;;;;;;5071810;28;20198;-72
2021/12/17 03:35:27;;;;;;;16.40;11.15;;;12.30;99.90;;;;;;5071853;28;20268;-72
2021/12/17 03:37:52;;;;;;;15.50;12.57;;;12.40;99.90;;;;;;5072999;28;20172;-72
2021/12/17 03:40:20;;;;;;;14.43;11.53;;;12.40;99.90;;;;;;5071900;28;20164;-73
2021/12/17 03:42:49;;;;;;;14.30;10.10;;;12.40;99.90;;;;;;5071460;28;20196;-72
2021/12/17 03:45:19;;;;;;;16.67;11.55;;;12.50;99.90;;;;;;5071796;28;20567;-73
2021/12/17 03:47:56;;;;;;;13.07;9.18;;;12.60;99.90;;;;;;5071566;28;20190;-73
2021/12/17 03:50:24;;;;;;;12.35;9.23;;;12.50;99.90;;;;;;5071335;28;20259;-73
2021/12/17 03:52:50;;;;;;;11.20;9.03;;;12.50;99.90;;;;;;5071410;28;20275;-73
2021/12/17 03:55:16;;;;;;;12.07;10.32;;;12.60;99.90;;;;;;5071472;28;20607;-73
2021/12/17 03:57:46;;;;;;;13.68;9.52;;;12.60;99.90;;;;;;5071595;28;20165;-73
2021/12/17 04:00:12;;;;;;;11.60;9.33;;;12.70;99.90;;;;;;5054594;28;20533;-73
2021/12/17 04:02:47;;;;;;;12.05;9.77;;;12.70;99.90;;;;;;5072441;28;20192;-73
2021/12/17 04:05:30;;;;;;;11.85;9.43;;;12.70;99.90;;;;;;5070924;28;20152;-72
2021/12/17 04:07:59;;;;;;;9.73;7.10;;;12.70;99.90;;;;;;5072474;28;20176;-73
2021/12/17 04:11:02;;;;;;;13.25;9.30;;;12.80;99.90;;;;;;5052190;28;20653;-73
2021/12/17 04:13:34;;;;;;;12.15;9.20;;;12.80;99.90;;;;;;5070816;28;20274;-73
2021/12/17 04:16:08;;;;;;;10.98;8.30;;;12.80;99.90;;;;;;5070886;28;20671;-73
2021/12/17 04:18:36;;;;;;;9.27;6.55;;;12.80;99.90;;;;;;5071137;28;20168;-73
2021/12/17 04:21:05;;;;;;;11.00;8.10;;;12.90;99.90;;;;;;5070096;28;20152;-72
2021/12/17 04:23:34;;;;;;;10.63;8.13;;;12.90;99.90;;;;;;5070801;28;20575;-73
2021/12/17 04:26:01;;;;;;;8.95;7.60;;;12.90;99.90;;;;;;5070717;28;20194;-73
2021/12/17 04:28:28;;;;;;;10.07;7.30;;;12.90;99.90;;;;;;5070856;28;20651;-73
2021/12/17 04:30:54;;;;;;;14.20;9.57;;;12.90;99.90;;;;;;5070531;28;20178;-73
2021/12/17 04:33:21;;;;;;;10.32;8.32;;;12.90;99.90;;;;;;5070593;28;20594;-73
2021/12/17 04:35:47;;;;;;;8.93;7.27;;;12.90;99.90;;;;;;5053632;28;20298;-73
2021/12/17 04:38:14;;;;;;;12.30;7.80;;;12.90;99.90;;;;;;5070718;28;20720;-73
2021/12/17 04:40:43;;;;;;;10.70;8.55;;;12.90;99.90;;;;;;5070415;28;20247;-73
2021/12/17 04:46:49;;;;;;;8.57;6.10;;;12.90;99.90;;;;;;5048127;28;20210;-73
2021/12/17 04:57:30;;;;;;;11.40;8.32;;;12.90;99.90;;;;;;5070449;28;20539;-73
2021/12/17 05:00:00;;;;;;;15.00;9.00;;;12.90;99.90;;;;;;5071786;28;20168;-73
2021/12/17 05:02:28;;;;;;;10.70;8.32;;;12.90;99.90;;;;;;5070338;28;21268;-73
2021/12/17 05:05:05;;;;;;;13.95;10.40;;;12.90;99.90;;;;;;5070379;28;20647;-73
2021/12/17 05:07:33;;;;;;;11.65;8.60;;;12.90;99.90;;;;;;5053701;28;20263;-73
2021/12/17 05:21:02;;;;;;;18.80;13.38;;;12.90;99.90;;;;;;5071537;28;20570;-73
2021/12/17 05:23:37;;;;;;;17.17;12.27;;;12.90;99.90;;;;;;5070197;28;20191;-73
2021/12/17 05:26:07;;;;;;;16.20;11.57;;;12.90;99.90;;;;;;5070103;28;20569;-73
2021/12/17 05:28:38;;;;;;;14.52;10.95;;;12.90;99.90;;;;;;5061710;28;20184;-74
2021/12/17 05:31:06;;;;;;;13.95;11.50;;;12.90;99.90;;;;;;5071815;28;20188;-73
2021/12/17 05:33:37;;;;;;;15.50;11.95;;;12.90;99.90;;;;;;5055827;28;20184;-73
2021/12/17 05:36:03;;;;;;;16.67;12.60;;;13.00;99.90;;;;;;5057121;28;20207;-72
2021/12/17 05:38:31;;;;;;;15.65;11.68;;;13.00;99.90;;;;;;5074212;28;20172;-72
2021/12/17 05:40:58;;;;;;;17.50;13.30;;;13.00;99.90;;;;;;5073756;28;20170;-72
2021/12/17 05:43:26;;;;;;;18.05;12.40;;;13.00;99.90;;;;;;5073840;28;20668;-72
2021/12/17 05:48:26;;;;;;;16.05;10.52;;;13.00;99.90;;;;;;5074037;28;20191;-72
2021/12/17 05:50:55;;;;;;;15.98;11.38;;;13.00;99.90;;;;;;5074970;28;20557;-73
2021/12/17 05:53:22;;;;;;;14.75;11.27;;;13.00;99.90;;;;;;5073501;28;20192;-73
2021/12/17 05:55:49;;;;;;;15.77;11.88;;;13.00;99.90;;;;;;5073812;28;20203;-73
2021/12/17 05:58:15;;;;;;;13.70;10.70;;;13.00;99.90;;;;;;5073627;28;20214;-73
2021/12/17 06:00:42;;;;;;;15.35;11.85;;;13.00;99.90;;;;;;5073716;28;20661;-73
2021/12/17 06:03:40;;;;;;;15.07;10.98;;;13.00;99.90;;;;;;5091028;22;20561;-75
2021/12/17 06:06:10;;;;;;;15.77;10.87;;;13.00;99.90;;;;;;5013150;28;20169;-75
2021/12/17 06:08:36;;;;;;;15.73;11.15;;;13.00;99.90;;;;;;5033226;28;20992;-74
2021/12/17 06:11:02;;;;;;;17.02;11.93;;;12.90;99.90;;;;;;5032521;28;20181;-75
2021/12/17 06:13:28;;;;;;;17.98;13.38;;;12.90;99.90;;;;;;5033449;28;20213;-74
2021/12/17 06:15:54;;;;;;;19.38;13.20;;;12.90;99.90;;;;;;5024413;28;20209;-75
2021/12/17 06:18:20;;;;;;;17.20;11.53;;;12.90;99.90;;;;;;5022648;28;20174;-75
2021/12/17 06:20:46;;;;;;;16.47;12.33;;;12.90;99.90;;;;;;5042521;28;20178;-75
2021/12/17 06:23:11;;;;;;;17.37;12.50;;;12.80;99.90;;;;;;5029760;28;20193;-75
2021/12/17 06:25:37;;;;;;;14.67;11.80;;;12.80;99.90;;;;;;5034181;28;20754;-75
2021/12/17 06:28:03;;;;;;;19.15;13.18;;;12.80;99.90;;;;;;5033345;28;20664;-75
2021/12/17 06:30:29;;;;;;;18.50;13.10;;;12.80;99.90;;;;;;5032283;28;20197;-75
2021/12/17 06:32:56;;;;;;;15.40;12.60;;;12.80;99.90;;;;;;5032897;28;20604;-75
2021/12/17 06:35:26;;;;;;;22.05;14.30;;;12.80;99.90;;;;;;5032846;28;20983;-75
2021/12/17 06:37:52;;;;;;;18.67;13.40;;;12.80;99.90;;;;;;5032973;28;20224;-75
2021/12/17 06:40:25;;;;;;;14.77;11.93;;;12.80;99.90;;;;;;5032178;28;20192;-75
2021/12/17 06:42:51;;;;;;;16.90;13.20;;;12.80;99.90;;;;;;5032567;28;20704;-76
2021/12/17 06:45:35;;;;;;;18.03;14.40;;;12.80;99.90;;;;;;5015939;28;20177;-76
2021/12/17 06:48:01;;;;;;;15.75;12.02;;;12.80;99.90;;;;;;5015943;28;20575;-73
2021/12/17 07:06:00;;;;;;;18.10;13.30;;;12.80;99.90;;;;;;4992882;28;20936;-74
2021/12/17 07:17:38;;;;;;;19.67;13.32;;;12.90;99.90;;;;;;5032355;28;20671;-74
2021/12/17 07:23:11;;;;;;;21.42;15.35;;;12.80;99.90;;;;;;5015254;28;20592;-74
2021/12/17 07:28:52;;;;;;;21.13;16.60;;;12.90;99.90;;;;;;5031953;28;20223;-74
2021/12/17 07:34:02;;;;;;;19.55;15.35;;;12.90;99.90;;;;;;5024614;28;20781;-75
2021/12/17 07:38:37;;;;;;;23.05;17.17;;;12.90;99.90;;;;;;5019550;28;20208;-74
2021/12/17 07:39:47;;;;;;;22.70;16.70;;;12.90;99.90;;;;;;5025133;28;20177;-74
2021/12/17 07:42:18;;;;;;;25.33;18.40;;;12.80;99.90;;;;;;5044965;28;20178;-74
2021/12/17 07:44:52;;;;;;;21.02;16.35;;;12.80;99.90;;;;;;5035300;28;20643;-74
2021/12/17 07:47:37;;;;;;;27.30;18.42;;;12.80;99.90;;;;;;5011826;28;20182;-74
2021/12/17 07:50:26;;;;;;;25.27;18.40;;;12.80;99.90;;;;;;5011392;28;20182;-74
2021/12/17 07:53:03;;;;;;;25.83;19.90;;;12.80;99.90;;;;;;5011161;28;21261;-74
2021/12/17 07:55:32;;;;;;;27.52;20.73;;;12.80;99.90;;;;;;5011053;28;20733;-74
2021/12/17 07:58:01;;;;;;;28.02;20.05;;;12.80;99.90;;;;;;4995237;28;20174;-74
2021/12/17 08:00:34;;;;;;;25.92;20.10;;;12.80;99.90;;;;;;5011466;28;20221;-75
2021/12/17 08:03:02;;;;;;;27.95;20.00;;;12.70;99.90;;;;;;4994681;28;20202;-75
2021/12/17 08:05:50;;;;;;;27.58;18.55;;;12.70;99.90;;;;;;5011556;28;20210;-74
2021/12/17 08:08:16;;;;;;;27.55;19.77;;;12.80;99.90;;;;;;5011276;28;20772;-74
2021/12/17 08:10:47;;;;;;;27.10;19.98;;;12.70;99.90;;;;;;5010915;28;20170;-74
2021/12/17 08:13:25;;;;;;;33.53;22.73;;;12.70;99.90;;;;;;5010858;28;20194;-74
2021/12/17 08:31:27;;;;;;;30.42;22.83;;;12.70;99.90;;;;;;4974332;28;20524;-73
2021/12/17 08:33:54;;;;;;;29.25;21.38;;;12.70;99.90;;;;;;4990792;28;20285;-74
2021/12/17 08:36:20;;;;;;;27.40;22.17;;;12.70;99.90;;;;;;5006462;28;20202;-74
2021/12/17 08:38:49;;;;;;;29.87;21.10;;;12.70;99.90;;;;;;4991474;28;20633;-74
2021/12/17 08:41:41;;;;;;;32.00;22.88;;;12.70;99.90;;;;;;4996175;28;20693;-74
2021/12/17 08:44:08;;;;;;;31.35;21.50;;;12.70;99.90;;;;;;5007210;28;20219;-74
2021/12/17 08:46:40;;;;;;;31.85;22.63;;;12.70;99.90;;;;;;4991006;28;20590;-74
2021/12/17 08:49:23;;;;;;;31.92;22.08;;;12.70;99.90;;;;;;4990671;28;20182;-74
2021/12/17 08:52:08;;;;;;;31.38;22.65;;;12.70;99.90;;;;;;5007289;28;20234;-74
2021/12/17 08:54:35;;;;;;;33.03;21.52;;;12.70;99.90;;;;;;4992173;28;20573;-75
2021/12/17 08:57:02;;;;;;;27.25;19.80;;;12.70;99.90;;;;;;4991136;28;20201;-74
2021/12/17 08:59:33;;;;;;;25.08;17.63;;;12.70;99.90;;;;;;4990789;28;20551;-74
2021/12/17 09:02:18;;;;;;;29.65;21.48;;;12.70;99.90;;;;;;4992731;28;20218;-75
2021/12/17 09:04:55;;;;;;;31.05;22.35;;;12.70;99.90;;;;;;5007520;28;20189;-73
2021/12/17 09:07:21;;;;;;;27.80;19.93;;;12.70;99.90;;;;;;4990463;28;20171;-74
2021/12/17 09:09:49;;;;;;;32.60;23.05;;;12.70;99.90;;;;;;5006310;28;20586;-74
2021/12/17 09:12:30;;;;;;;26.45;19.30;;;12.70;99.90;;;;;;4990307;28;20653;-73
2021/12/17 09:14:57;;;;;;;25.23;19.77;;;12.70;99.90;;;;;;4990743;28;20206;-73
2021/12/17 09:17:55;;;;;;;32.65;22.48;;;12.60;99.90;;;;;;4948211;28;20214;-74
2021/12/17 09:20:23;;;;;;;30.70;21.73;;;12.60;99.90;;;;;;4990237;28;20183;-73
2021/12/17 09:22:52;;;;;;;29.10;21.98;;;12.60;99.90;;;;;;5006458;28;20213;-74
2021/12/17 09:25:20;;;;;;;32.22;22.38;;;12.60;99.90;;;;;;4990470;28;20177;-72
2021/12/17 09:27:56;;;;;;;28.88;23.65;;;12.60;99.90;;;;;;5022885;28;20177;-72
2021/12/17 09:30:29;;;;;;;30.33;21.23;;;12.70;99.90;;;;;;5010680;28;20185;-72
2021/12/17 09:32:54;;;;;;;26.87;19.40;;;12.70;99.90;;;;;;5011202;28;20194;-74
2021/12/17 09:35:21;;;;;;;29.23;21.07;;;12.70;99.90;;;;;;5009887;28;20291;-74
2021/12/17 09:37:47;;;;;;;33.50;24.50;;;12.70;99.90;;;;;;5011611;28;20166;-74
2021/12/17 09:40:13;;;;;;;30.00;23.50;;;12.70;99.90;;;;;;5010660;28;20248;-74
2021/12/17 09:42:41;;;;;;;31.60;23.60;;;12.70;99.90;;;;;;5011405;28;20202;-74
2021/12/17 09:45:07;;;;;;;30.48;23.63;;;12.70;99.90;;;;;;5011514;28;20257;-74
2021/12/17 09:47:33;;;;;;;29.02;21.50;;;12.70;99.90;;;;;;5010181;28;20178;-74
2021/12/17 09:49:59;;;;;;;33.33;22.87;;;12.70;99.90;;;;;;5009752;28;20233;-74
2021/12/17 09:52:26;;;;;;;28.93;21.27;;;12.70;99.90;;;;;;5009645;28;20186;-74
2021/12/17 09:54:53;;;;;;;32.38;23.42;;;12.80;99.90;;;;;;5011131;28;20687;-75
2021/12/17 09:57:20;;;;;;;37.20;24.92;;;12.80;99.90;;;;;;5009779;28;20224;-74
2021/12/17 09:59:47;;;;;;;32.85;24.90;;;12.80;99.90;;;;;;5010972;28;20177;-75
2021/12/17 10:02:12;;;;;;;29.55;23.13;;;12.80;99.90;;;;;;5009898;28;20167;-74
2021/12/17 10:04:42;;;;;;;34.47;24.90;;;12.80;99.90;;;;;;5008755;28;20686;-74
2021/12/17 10:07:19;;;;;;;32.90;23.48;;;12.80;99.90;;;;;;5025935;28;20177;-73
2021/12/17 10:10:00;;;;;;;34.03;22.35;;;12.80;99.90;;;;;;5009703;28;20193;-74
2021/12/17 10:12:32;;;;;;;35.65;23.85;;;12.80;99.90;;;;;;5010970;28;20167;-75
2021/12/17 10:15:04;;;;;;;38.70;28.07;;;12.90;99.90;;;;;;5021337;28;20563;-74
2021/12/17 10:17:30;;;;;;;37.15;24.75;;;12.90;99.90;;;;;;5010798;28;20565;-75
2021/12/17 10:19:56;;;;;;;37.30;26.80;;;12.90;99.90;;;;;;5012173;28;20173;-75
2021/12/17 10:22:25;;;;;;;37.47;26.05;;;12.90;99.90;;;;;;4997001;28;20660;-74
2021/12/17 10:24:56;;;;;;;44.03;28.83;;;12.90;99.90;;;;;;5014448;28;20222;-74
2021/12/17 10:27:27;;;;;;;48.33;31.50;;;12.90;99.90;;;;;;5013476;28;20228;-74
2021/12/17 10:29:55;;;;;;;45.22;32.50;;;13.00;99.90;;;;;;5014100;28;20657;-74
2021/12/17 10:32:23;;;;;;;46.95;32.65;;;13.00;99.90;;;;;;5014807;28;20539;-74
2021/12/17 10:34:59;;;;;;;45.88;31.55;;;13.00;99.90;;;;;;4996188;28;20190;-74
2021/12/17 10:37:49;;;;;;;44.08;31.38;;;13.00;99.90;;;;;;5029854;28;20162;-74
2021/12/17 10:40:22;;;;;;;39.95;27.13;;;13.00;99.90;;;;;;5012601;28;20185;-74
2021/12/17 10:45:30;;;;;;;38.67;26.30;;;13.00;99.90;;;;;;5014148;28;20174;-74
2021/12/17 10:50:54;;;;;;;46.97;31.15;;;12.90;99.90;;;;;;5013578;28;20193;-74
2021/12/17 10:53:24;;;;;;;43.17;28.70;;;13.00;99.90;;;;;;5013932;28;20198;-74
2021/12/17 10:55:50;;;;;;;38.28;26.52;;;12.90;99.90;;;;;;5017664;28;20535;-74
2021/12/17 10:58:17;;;;;;;40.38;25.38;;;12.90;99.90;;;;;;5025139;28;20536;-74
2021/12/17 11:01:06;;;;;;;40.28;28.35;;;12.90;99.90;;;;;;5023540;28;20170;-75
2021/12/17 11:03:40;;;;;;;37.08;25.52;;;12.90;99.90;;;;;;5031132;28;20202;-74
2021/12/17 11:06:06;;;;;;;39.55;27.85;;;12.90;99.90;;;;;;5050794;28;20671;-74
2021/12/17 11:08:37;;;;;;;38.73;27.00;;;12.90;99.90;;;;;;5033636;28;20182;-74
2021/12/17 11:11:11;;;;;;;36.20;24.73;;;12.90;99.90;;;;;;5032825;28;20589;-74
2021/12/17 11:13:52;;;;;;;39.13;25.58;;;12.90;99.90;;;;;;5033305;28;20268;-74
2021/12/17 11:16:20;;;;;;;35.50;25.08;;;12.90;99.90;;;;;;5043140;28;20227;-76
2021/12/17 11:18:48;;;;;;;32.90;23.85;;;12.80;99.90;;;;;;5039818;28;20189;-76
2021/12/17 11:21:14;;;;;;;38.15;26.35;;;12.80;99.90;;;;;;5042383;28;20170;-77
2021/12/17 11:23:40;;;;;;;39.67;25.95;;;12.80;99.90;;;;;;5045157;28;20503;-76
2021/12/17 11:26:06;;;;;;;39.80;25.70;;;12.80;99.90;;;;;;5029059;28;20254;-76
2021/12/17 11:28:32;;;;;;;38.50;24.65;;;12.80;99.90;;;;;;5045919;28;20177;-76
2021/12/17 11:30:58;;;;;;;36.10;24.40;;;12.80;99.90;;;;;;5045538;28;20162;-76
2021/12/17 11:33:25;;;;;;;36.45;23.02;;;12.80;99.90;;;;;;5028086;28;20615;-76
2021/12/17 11:35:51;;;;;;;37.13;23.40;;;12.80;99.90;;;;;;5045569;28;20197;-76
2021/12/17 11:38:31;;;;;;;38.85;24.70;;;12.80;99.90;;;;;;5045438;28;20177;-76
2021/12/17 11:41:22;;;;;;;35.55;24.30;;;12.80;99.90;;;;;;5047657;28;20188;-76
2021/12/17 11:43:51;;;;;;;42.63;26.75;;;12.80;99.90;;;;;;5052670;28;20193;-77
2021/12/17 11:46:26;;;;;;;37.38;25.70;;;12.80;99.90;;;;;;5037989;28;20179;-77
2021/12/17 11:49:13;;;;;;;38.05;24.35;;;12.80;99.90;;;;;;5032748;28;20259;-76
2021/12/17 11:51:39;;;;;;;34.80;21.83;;;12.80;99.90;;;;;;5033551;28;20169;-77
2021/12/17 11:54:17;;;;;;;40.70;25.73;;;12.90;99.90;;;;;;5054753;28;20180;-77
2021/12/17 11:56:52;;;;;;;40.35;25.40;;;12.90;99.90;;;;;;5051585;28;20182;-77
2021/12/17 11:59:29;;;;;;;41.25;25.38;;;12.90;99.90;;;;;;5013954;28;20189;-77
2021/12/17 12:02:01;;;;;;;36.80;23.70;;;12.90;99.90;;;;;;5015394;28;20164;-77
2021/12/17 12:04:37;;;;;;;36.42;23.35;;;12.90;99.90;;;;;;5057441;28;20197;-77
2021/12/17 12:07:15;;;;;;;35.75;24.63;;;12.90;99.90;;;;;;5074246;28;20207;-77
2021/12/17 12:09:56;;;;;;;36.92;24.02;;;12.90;99.90;;;;;;5074413;28;20187;-76
2021/12/17 12:12:24;;;;;;;38.60;23.20;;;12.90;99.90;;;;;;5075853;28;20177;-77
2021/12/17 12:14:50;;;;;;;39.80;23.90;;;12.90;99.90;;;;;;5076167;28;20308;-77
2021/12/17 12:17:57;;;;;;;34.83;21.90;;;12.90;99.90;;;;;;5032534;28;20165;-76
2021/12/17 12:20:39;;;;;;;42.05;24.20;;;12.90;99.90;;;;;;5021182;28;20239;-77
2021/12/17 12:23:19;;;;;;;42.65;25.02;;;12.90;99.90;;;;;;5052811;28;20176;-77
2021/12/17 12:26:15;;;;;;;37.00;23.75;;;12.90;99.90;;;;;;5054497;28;20299;-76
2021/12/17 12:28:47;;;;;;;40.92;25.08;;;12.90;99.90;;;;;;5027956;28;20588;-77
2021/12/17 12:31:20;;;;;;;47.93;27.30;;;12.90;99.90;;;;;;5057627;22;20534;-83
2021/12/17 12:36:45;;;;;;;48.40;27.20;;;12.90;99.90;;;;;;5023264;28;20633;-81
2021/12/17 12:39:14;;;;;;;44.83;28.67;;;12.90;99.90;;;;;;5012670;28;20178;-80
2021/12/17 12:41:43;;;;;;;53.42;29.67;;;12.90;99.90;;;;;;5006855;28;20623;-82
2021/12/17 12:44:09;;;;;;;49.30;29.97;;;12.90;99.90;;;;;;5017930;28;20169;-82
2021/12/17 12:46:54;;;;;;;46.73;29.30;;;12.90;99.90;;;;;;5008637;28;20695;-82
2021/12/17 12:49:45;;;;;;;45.33;27.05;;;12.90;99.90;;;;;;5033385;28;20169;-82
2021/12/17 12:52:45;;;;;;;40.25;25.33;;;12.90;99.90;;;;;;5013129;28;20199;-82
2021/12/17 12:55:34;;;;;;;48.50;25.35;;;12.90;99.90;;;;;;5014328;28;20665;-82
2021/12/17 12:58:03;;;;;;;45.63;26.23;;;12.90;99.90;;;;;;5015985;28;20252;-82
2021/12/17 13:00:46;;;;;;;41.10;24.37;;;12.90;99.90;;;;;;4996267;28;20645;-82
2021/12/17 13:03:18;;;;;;;33.38;22.48;;;12.90;99.90;;;;;;5031088;28;20646;-82
2021/12/17 13:05:47;;;;;;;42.60;24.20;;;12.90;99.90;;;;;;5031861;28;20174;-81
2021/12/17 13:08:15;;;;;;;40.43;23.87;;;12.90;99.90;;;;;;5018278;28;20224;-82
2021/12/17 13:10:44;;;;;;;44.40;23.38;;;12.90;99.90;;;;;;5025822;28;20573;-81
2021/12/17 13:13:20;;;;;;;39.78;23.42;;;12.90;99.90;;;;;;4993852;28;20199;-81
2021/12/17 13:24:16;;;;;;;28.45;17.02;;;12.90;99.90;;;;;;4997042;28;20170;-81
2021/12/17 13:26:58;;;;;;;31.65;20.67;;;12.90;99.90;;;;;;4983881;28;20504;-81
2021/12/17 13:29:30;;;;;;;26.95;17.80;;;13.00;99.90;;;;;;5030783;28;20196;-80
2021/12/17 13:32:01;;;;;;;26.67;17.60;;;13.00;99.90;;;;;;5027954;28;20226;-82
2021/12/17 13:34:35;;;;;;;21.00;13.60;;;13.10;99.90;;;;;;4981620;28;20597;-80
2021/12/17 13:37:20;;;;;;;16.58;13.07;;;13.10;99.90;;;;;;4994461;28;20252;-81
2021/12/17 13:39:50;;;;;;;16.50;11.93;;;13.20;99.90;;;;;;5019515;28;20217;-80
2021/12/17 13:42:19;;;;;;;18.53;13.00;;;13.20;99.90;;;;;;5021804;28;20624;-84
2021/12/17 13:44:55;;;;;;;15.13;10.87;;;13.20;99.90;;;;;;4990492;28;20588;-82
2021/12/17 13:47:28;;;;;;;12.60;9.57;;;13.20;99.90;;;;;;5028762;28;20600;-80
2021/12/17 13:50:00;;;;;;;10.98;8.68;;;13.20;99.90;;;;;;5026117;28;20622;-81
2021/12/17 13:52:30;;;;;;;12.30;9.77;;;13.20;99.90;;;;;;5018616;28;20197;-79
2021/12/17 13:54:57;;;;;;;10.90;8.33;;;13.20;99.90;;;;;;5026213;28;20624;-82
2021/12/17 13:57:27;;;;;;;10.70;8.90;;;13.10;99.90;;;;;;5010941;28;20601;-82
2021/12/17 14:00:04;;;;;;;8.73;7.07;;;13.10;99.90;;;;;;4980744;28;20189;-81
2021/12/17 14:02:39;;;;;;;7.00;5.70;;;13.10;99.90;;;;;;5030982;28;20194;-81
2021/12/17 14:05:10;;;;;;;9.23;6.45;;;13.10;99.90;;;;;;5025210;28;20585;-80
2021/12/17 14:07:38;;;;;;;6.00;5.43;;;13.10;99.90;;;;;;4998660;28;20657;-80
2021/12/17 14:10:16;;;;;;;8.35;7.40;;;13.10;99.90;;;;;;4994904;28;20174;-80
2021/12/17 14:12:43;;;;;;;6.68;5.95;;;13.10;99.90;;;;;;5036084;28;20261;-83
2021/12/17 14:15:17;;;;;;;7.93;6.30;;;13.10;99.90;;;;;;5025560;28;20245;-80
2021/12/17 14:17:46;;;;;;;10.33;5.77;;;13.10;99.90;;;;;;5009393;28;20593;-79
2021/12/17 14:20:21;;;;;;;6.60;5.93;;;13.10;99.90;;;;;;5013571;28;20568;-80
2021/12/17 14:22:50;;;;;;;6.63;5.93;;;13.10;99.90;;;;;;5013307;28;20224;-81
2021/12/17 14:25:35;;;;;;;6.53;5.53;;;13.10;99.90;;;;;;5026604;28;20589;-80
2021/12/17 14:28:10;;;;;;;6.23;5.63;;;13.10;99.90;;;;;;5000011;28;20577;-82
2021/12/17 14:30:37;;;;;;;5.75;5.13;;;13.10;99.90;;;;;;5005657;28;20684;-81
2021/12/17 14:33:32;;;;;;;6.63;5.72;;;13.10;99.90;;;;;;5026780;28;20220;-83
2021/12/17 14:36:01;;;;;;;8.82;5.53;;;13.10;99.90;;;;;;5029500;28;20217;-80
2021/12/17 14:39:14;;;;;;;6.10;5.40;;;13.10;99.90;;;;;;5005865;28;20241;-80
2021/12/17 14:41:53;;;;;;;7.75;6.55;;;13.00;99.90;;;;;;5033634;28;20224;-82
2021/12/17 14:47:09;;;;;;;6.68;6.07;;;13.00;99.90;;;;;;5027842;28;20601;-82
2021/12/17 15:05:21;;;;;;;6.60;6.00;;;12.90;99.90;;;;;;5020680;28;20254;-80
2021/12/17 15:07:48;;;;;;;7.18;5.45;;;12.90;99.90;;;;;;5007727;28;20193;-80
2021/12/17 15:10:15;;;;;;;4.90;4.50;;;12.90;99.90;;;;;;5009739;28;20260;-79
2021/12/17 15:12:41;;;;;;;6.20;5.60;;;12.90;99.90;;;;;;5007914;28;20340;-79
2021/12/17 15:15:15;;;;;;;4.90;4.40;;;12.90;99.90;;;;;;5008779;28;20719;-79
2021/12/17 15:17:42;;;;;;;6.18;4.95;;;12.90;99.90;;;;;;5024695;28;20575;-79
2021/12/17 15:20:09;;;;;;;5.20;4.70;;;12.90;99.90;;;;;;5012448;28;20200;-79
2021/12/17 15:22:35;;;;;;;5.53;4.95;;;12.80;99.90;;;;;;5028758;28;20232;-79
2021/12/17 15:25:01;;;;;;;5.53;5.03;;;12.80;99.90;;;;;;5013719;28;20186;-80
2021/12/17 15:27:29;;;;;;;5.27;4.00;;;12.80;99.90;;;;;;5028366;28;20637;-80
2021/12/17 15:29:56;;;;;;;5.78;4.65;;;12.70;99.90;;;;;;5026282;28;20580;-80
2021/12/17 15:32:22;;;;;;;4.50;3.83;;;12.70;99.90;;;;;;5007299;28;20216;-80
2021/12/17 15:34:50;;;;;;;4.97;4.47;;;12.70;99.90;;;;;;5009479;28;20193;-79
2021/12/17 15:37:16;;;;;;;4.75;4.28;;;12.70;99.90;;;;;;5009720;28;20173;-79
2021/12/17 15:39:42;;;;;;;4.07;3.60;;;12.60;99.90;;;;;;4984828;28;20185;-82
2021/12/17 15:42:09;;;;;;;4.90;4.10;;;12.60;99.90;;;;;;4981654;28;20195;-82
2021/12/17 15:44:36;;;;;;;4.72;3.65;;;12.60;99.90;;;;;;5001736;28;20252;-80
2021/12/17 15:47:05;;;;;;;3.83;3.25;;;12.60;99.90;;;;;;5014944;28;20275;-81
2021/12/17 15:49:31;;;;;;;3.63;3.17;;;12.60;99.90;;;;;;4998293;28;20166;-77
2021/12/17 15:51:56;;;;;;;5.60;3.92;;;12.60;99.90;;;;;;5015146;28;20197;-78
2021/12/17 15:54:22;;;;;;;4.13;2.80;;;12.60;99.90;;;;;;4994211;28;20512;-77
2021/12/17 15:56:49;;;;;;;4.73;3.90;;;12.60;99.90;;;;;;5012760;28;20178;-78
2021/12/17 15:59:15;;;;;;;3.95;3.55;;;12.60;99.90;;;;;;5013596;28;20217;-80
2021/12/17 16:01:41;;;;;;;4.85;4.00;;;12.50;99.90;;;;;;5015106;28;20190;-80
2021/12/17 16:04:07;;;;;;;3.57;3.17;;;12.50;99.90;;;;;;5012667;28;20273;-81
2021/12/17 16:06:33;;;;;;;4.82;3.55;;;12.50;99.90;;;;;;4994905;28;20613;-80
2021/12/17 16:09:04;;;;;;;4.50;4.07;;;12.50;99.90;;;;;;4997898;28;20181;-83
2021/12/17 16:22:38;;;;;;;5.72;5.20;;;12.40;99.90;;;;;;5013695;28;20272;-81
2021/12/17 16:25:04;;;;;;;5.30;4.80;;;12.40;99.90;;;;;;4998678;28;20598;-81
2021/12/17 16:27:30;;;;;;;6.00;5.40;;;12.30;99.90;;;;;;5025511;28;20221;-80
2021/12/17 16:29:57;;;;;;;6.33;4.60;;;12.30;99.90;;;;;;5031780;28;20588;-80